Time,TemperatureF,DewpointF,PressureIn,WindDirection,WindDirectionDegrees,WindSpeedMPH,WindSpeedGustMPH,Humidity,HourlyPrecipIn,Conditions,Clouds,dailyrainin,SolarRadiationWatts/m^2,SoftwareType,DateUTC
2013-01-12 00:09:00,42.1,41.6,29.68,SSE,166,13.0,17.0,98,0.00,,,0.00,0,Wunderground v.1.15,2013-01-12 06:09:00,
2013-01-12 00:19:00,42.1,41.6,29.68,SSE,151,11.0,19.0,98,0.00,,,0.00,0,Wunderground v.1.15,2013-01-12 06:19:00,
2013-01-12 00:24:00,42.1,41.6,29.67,SSE,155,11.0,14.0,98,0.00,,,0.00,0,Wunderground v.1.15,2013-01-12 06:24:00,
2013-01-12 00:29:00,42.0,41.5,29.68,SSE,159,12.0,15.0,98,0.00,,,0.00,0,Wunderground v.1.15,2013-01-12 06:29:00,
2013-01-12 00:35:00,42.0,41.5,29.68,SSE,167,11.0,15.0,98,0.00,,,0.00,0,Wunderground v.1.15,2013-01-12 06:35:00,
2013-01-12 00:40:00,41.8,41.3,29.68,SSE,157,9.0,13.0,98,0.00,,,0.00,0,Wunderground v.1.15,2013-01-12 06:40:00,
2013-01-12 00:45:00,41.8,41.3,29.68,SSE,155,14.0,14.0,98,0.00,,,0.00,0,Wunderground v.1.15,2013-01-12 06:45:00,
2013-01-12 00:50:00,41.7,41.2,29.68,SSE,157,10.0,12.0,98,0.00,,,0.00,0,Wunderground v.1.15,2013-01-12 06:50:00,
2013-01-12 01:03:00,42.0,41.5,29.68,South,172,12.0,14.0,98,0.00,,,0.00,0,Wunderground v.1.15,2013-01-12 07:03:00,
2013-01-12 01:22:00,42.4,41.9,29.68,SSE,159,17.0,17.0,98,0.00,,,0.00,0,Wunderground v.1.15,2013-01-12 07:22:00,
2013-01-12 01:49:00,42.1,41.3,29.68,SSE,167,11.0,14.0,97,0.00,,,0.00,0,Wunderground v.1.15,2013-01-12 07:49:00,
2013-01-12 01:54:00,42.1,41.0,29.68,SSE,156,10.0,13.0,96,0.00,,,0.00,0,Wunderground v.1.15,2013-01-12 07:54:00,
2013-01-12 02:01:00,42.2,41.1,29.68,SSE,159,9.0,12.0,96,0.00,,,0.00,0,Wunderground v.1.15,2013-01-12 08:01:00,
2013-01-12 02:13:00,42.6,41.5,29.69,SSE,157,16.0,17.0,96,0.00,,,0.00,0,Wunderground v.1.15,2013-01-12 08:13:00,
2013-01-12 02:18:00,42.6,41.3,29.69,SSE,163,10.0,17.0,95,0.00,,,0.00,0,Wunderground v.1.15,2013-01-12 08:18:00,
2013-01-12 02:27:00,42.7,41.4,29.68,SSE,159,14.0,17.0,95,0.00,,,0.00,0,Wunderground v.1.15,2013-01-12 08:27:00,
2013-01-12 02:35:00,42.9,41.6,29.68,SSE,162,13.0,16.0,95,0.00,,,0.00,0,Wunderground v.1.15,2013-01-12 08:35:00,
2013-01-12 02:40:00,43.0,41.4,29.68,SSE,157,15.0,17.0,94,0.00,,,0.00,0,Wunderground v.1.15,2013-01-12 08:40:00,
2013-01-12 02:45:00,43.2,41.6,29.67,SSE,155,11.0,17.0,94,0.00,,,0.00,0,Wunderground v.1.15,2013-01-12 08:45:00,
2013-01-12 02:54:00,43.2,41.6,29.67,SSE,153,11.0,15.0,94,0.00,,,0.00,0,Wunderground v.1.15,2013-01-12 08:54:00,
2013-01-12 03:01:00,43.2,41.6,29.67,SSE,166,14.0,17.0,94,0.00,,,0.00,0,Wunderground v.1.15,2013-01-12 09:01:00,
2013-01-12 03:06:00,43.4,41.8,29.67,SSE,155,12.0,17.0,94,0.00,,,0.00,0,Wunderground v.1.15,2013-01-12 09:06:00,
2013-01-12 03:11:00,43.4,41.5,29.67,South,169,10.0,15.0,93,0.00,,,0.00,0,Wunderground v.1.15,2013-01-12 09:11:00,
2013-01-12 03:22:00,43.6,41.7,29.67,SSE,153,12.0,13.0,93,0.00,,,0.00,0,Wunderground v.1.15,2013-01-12 09:22:00,
2013-01-12 03:35:00,43.9,41.7,29.67,South,185,13.0,15.0,92,0.00,,,0.00,0,Wunderground v.1.15,2013-01-12 09:35:00,
2013-01-12 03:48:00,44.0,41.5,29.67,SSE,165,10.0,19.0,91,0.00,,,0.00,0,Wunderground v.1.15,2013-01-12 09:48:00,
2013-01-12 04:00:00,43.9,41.7,29.67,SSE,161,13.0,17.0,92,0.00,,,0.00,0,Wunderground v.1.15,2013-01-12 10:00:00,
2013-01-12 04:07:00,44.2,41.7,29.67,SSE,168,14.0,19.0,91,0.00,,,0.00,0,Wunderground v.1.15,2013-01-12 10:07:00,
2013-01-12 04:14:00,44.3,41.8,29.67,South,182,17.0,18.0,91,0.00,,,0.00,0,Wunderground v.1.15,2013-01-12 10:14:00,
2013-01-12 04:19:00,44.5,42.0,29.67,SW,222,11.0,20.0,91,0.00,,,0.00,0,Wunderground v.1.15,2013-01-12 10:19:00,
2013-01-12 04:25:00,44.5,41.7,29.67,South,170,15.0,19.0,90,0.00,,,0.00,0,Wunderground v.1.15,2013-01-12 10:25:00,
2013-01-12 04:30:00,44.5,41.7,29.67,SSE,167,14.0,19.0,90,0.00,,,0.00,0,Wunderground v.1.15,2013-01-12 10:30:00,
2013-01-12 04:35:00,44.5,41.7,29.67,South,182,11.0,20.0,90,0.00,,,0.00,0,Wunderground v.1.15,2013-01-12 10:35:00,
2013-01-12 04:40:00,44.3,41.6,29.67,SSW,205,5.0,13.0,90,0.00,,,0.00,0,Wunderground v.1.15,2013-01-12 10:40:00,
2013-01-12 04:48:00,44.5,41.7,29.67,SSW,198,9.0,21.0,90,0.00,,,0.00,0,Wunderground v.1.15,2013-01-12 10:48:00,
2013-01-12 04:55:00,44.9,42.1,29.68,South,178,18.0,22.0,90,0.00,,,0.00,0,Wunderground v.1.15,2013-01-12 10:55:00,
2013-01-12 05:00:00,45.2,42.2,29.68,South,188,19.0,24.0,89,0.00,,,0.00,0,Wunderground v.1.15,2013-01-12 11:00:00,
2013-01-12 05:05:00,45.2,42.2,29.68,South,169,17.0,24.0,89,0.00,,,0.00,0,Wunderground v.1.15,2013-01-12 11:05:00,
2013-01-12 05:10:00,45.2,42.2,29.69,SSW,194,12.0,13.0,89,0.00,,,0.00,0,Wunderground v.1.15,2013-01-12 11:10:00,
2013-01-12 05:15:00,45.3,42.2,29.69,SSW,198,18.0,20.0,89,0.00,,,0.00,0,Wunderground v.1.15,2013-01-12 11:15:00,
2013-01-12 05:20:00,45.2,42.2,29.69,South,174,12.0,12.0,89,0.00,,,0.00,0,Wunderground v.1.15,2013-01-12 11:20:00,
2013-01-12 05:25:00,45.0,42.0,29.69,South,182,13.0,18.0,89,0.00,,,0.00,0,Wunderground v.1.15,2013-01-12 11:25:00,
2013-01-12 05:30:00,45.1,42.1,29.70,South,178,9.0,11.0,89,0.00,,,0.00,0,Wunderground v.1.15,2013-01-12 11:30:00,
2013-01-12 05:35:00,45.2,42.2,29.70,SSW,192,8.0,21.0,89,0.00,,,0.00,0,Wunderground v.1.15,2013-01-12 11:35:00,
2013-01-12 05:40:00,45.2,42.2,29.71,SSW,203,10.0,13.0,89,0.00,,,0.00,0,Wunderground v.1.15,2013-01-12 11:40:00,
2013-01-12 05:45:00,45.0,41.7,29.71,South,182,16.0,23.0,88,0.00,,,0.00,0,Wunderground v.1.15,2013-01-12 11:45:00,
2013-01-12 05:50:00,44.9,41.9,29.71,South,169,13.0,13.0,89,0.00,,,0.00,0,Wunderground v.1.15,2013-01-12 11:50:00,
2013-01-12 05:55:00,44.9,41.9,29.71,SSW,196,17.0,20.0,89,0.00,,,0.00,0,Wunderground v.1.15,2013-01-12 11:55:00,
2013-01-12 06:00:00,44.9,41.9,29.71,SSW,200,16.0,16.0,89,0.00,,,0.00,0,Wunderground v.1.15,2013-01-12 12:00:00,
2013-01-12 06:05:00,45.0,42.0,29.71,SSW,198,10.0,20.0,89,0.00,,,0.00,0,Wunderground v.1.15,2013-01-12 12:05:00,
2013-01-12 06:10:00,45.0,41.7,29.72,SSW,199,9.0,12.0,88,0.00,,,0.00,0,Wunderground v.1.15,2013-01-12 12:10:00,
2013-01-12 06:15:00,45.0,41.7,29.73,SSW,200,12.0,17.0,88,0.00,,,0.00,0,Wunderground v.1.15,2013-01-12 12:15:00,
2013-01-12 06:20:00,45.1,41.5,29.73,SSW,202,11.0,12.0,87,0.00,,,0.00,0,Wunderground v.1.15,2013-01-12 12:20:00,
2013-01-12 06:25:00,45.2,41.0,29.73,SSW,211,13.0,24.0,85,0.00,,,0.00,0,Wunderground v.1.15,2013-01-12 12:25:00,
2013-01-12 06:30:00,45.5,40.6,29.73,SSW,210,12.0,17.0,83,0.00,,,0.00,0,Wunderground v.1.15,2013-01-12 12:30:00,
2013-01-12 06:35:00,45.6,40.4,29.74,SW,215,17.0,24.0,82,0.00,,,0.00,0,Wunderground v.1.15,2013-01-12 12:35:00,
2013-01-12 06:40:00,45.6,39.8,29.74,SW,217,14.0,15.0,80,0.00,,,0.00,0,Wunderground v.1.15,2013-01-12 12:40:00,
2013-01-12 06:45:00,45.4,38.6,29.74,SSW,200,14.0,27.0,77,0.00,,,0.00,0,Wunderground v.1.15,2013-01-12 12:45:00,
2013-01-12 06:50:00,45.2,38.1,29.74,SSW,198,10.0,16.0,76,0.00,,,0.00,0,Wunderground v.1.15,2013-01-12 12:50:00,
2013-01-12 06:55:00,44.9,38.1,29.75,South,184,9.0,21.0,77,0.00,,,0.00,0,Wunderground v.1.15,2013-01-12 12:55:00,
2013-01-12 07:00:00,44.5,38.1,29.75,South,184,11.0,13.0,78,0.00,,,0.00,0,Wunderground v.1.15,2013-01-12 13:00:00,
2013-01-12 07:05:00,44.1,37.7,29.76,SSW,204,14.0,22.0,78,0.00,,,0.00,0,Wunderground v.1.15,2013-01-12 13:05:00,
2013-01-12 07:10:00,43.7,37.6,29.77,SW,217,19.0,19.0,79,0.00,,,0.00,0,Wunderground v.1.15,2013-01-12 13:10:00,
2013-01-12 07:15:00,43.6,36.9,29.77,SW,224,20.0,31.0,77,0.00,,,0.00,0,Wunderground v.1.15,2013-01-12 13:15:00,
2013-01-12 07:20:00,43.2,35.8,29.78,SSW,194,11.0,18.0,75,0.00,,,0.00,0,Wunderground v.1.15,2013-01-12 13:20:00,
2013-01-12 07:25:00,42.7,35.7,29.78,SW,222,16.0,34.0,76,0.00,,,0.00,0,Wunderground v.1.15,2013-01-12 13:25:00,
2013-01-12 07:30:00,42.1,35.1,29.78,SW,230,21.0,24.0,76,0.00,,,0.00,0,Wunderground v.1.15,2013-01-12 13:30:00,
2013-01-12 07:35:00,41.4,34.7,29.79,SW,234,21.0,25.0,77,0.00,,,0.00,5,Wunderground v.1.15,2013-01-12 13:35:00,
2013-01-12 07:40:00,41.0,34.7,29.79,SSW,208,17.0,18.0,78,0.00,,,0.00,11,Wunderground v.1.15,2013-01-12 13:40:00,
2013-01-12 07:45:00,40.6,34.6,29.80,SSW,200,9.0,23.0,79,0.00,,,0.00,18,Wunderground v.1.15,2013-01-12 13:45:00,
2013-01-12 07:50:00,40.4,34.4,29.81,SSW,213,12.0,15.0,79,0.00,,,0.00,25,Wunderground v.1.15,2013-01-12 13:50:00,
2013-01-12 07:55:00,40.0,33.7,29.81,SW,226,22.0,25.0,78,0.00,,,0.00,28,Wunderground v.1.15,2013-01-12 13:55:00,
2013-01-12 08:00:00,39.3,33.3,29.82,South,178,11.0,17.0,79,0.00,,,0.00,37,Wunderground v.1.15,2013-01-12 14:00:00,
2013-01-12 08:05:00,38.8,33.2,29.82,SSW,213,19.0,30.0,80,0.00,,,0.00,42,Wunderground v.1.15,2013-01-12 14:05:00,
2013-01-12 08:10:00,38.5,33.2,29.83,SSW,197,17.0,21.0,81,0.00,,,0.00,46,Wunderground v.1.15,2013-01-12 14:10:00,
2013-01-12 08:15:00,38.2,33.2,29.84,SW,217,18.0,28.0,82,0.00,,,0.00,53,Wunderground v.1.15,2013-01-12 14:15:00,
2013-01-12 08:20:00,37.9,32.9,29.84,SSW,213,11.0,17.0,82,0.00,,,0.00,56,Wunderground v.1.15,2013-01-12 14:20:00,
2013-01-12 08:25:00,37.6,32.9,29.85,SW,217,16.0,22.0,83,0.00,,,0.00,63,Wunderground v.1.15,2013-01-12 14:25:00,
2013-01-12 08:30:00,37.4,32.4,29.85,SW,234,12.0,23.0,82,0.00,,,0.00,74,Wunderground v.1.15,2013-01-12 14:30:00,
2013-01-12 08:35:00,37.2,31.9,29.85,SW,225,14.0,24.0,81,0.00,,,0.00,83,Wunderground v.1.15,2013-01-12 14:35:00,
2013-01-12 08:40:00,36.7,31.1,29.85,SW,225,27.0,27.0,80,0.00,,,0.00,95,Wunderground v.1.15,2013-01-12 14:40:00,
2013-01-12 08:45:00,36.1,29.9,29.86,SSW,206,19.0,33.0,78,0.00,,,0.00,141,Wunderground v.1.15,2013-01-12 14:45:00,
2013-01-12 08:50:00,35.7,30.1,29.87,SW,225,18.0,20.0,80,0.00,,,0.00,130,Wunderground v.1.15,2013-01-12 14:50:00,
2013-01-12 08:55:00,35.3,29.7,29.87,SW,220,12.0,24.0,80,0.00,,,0.00,146,Wunderground v.1.15,2013-01-12 14:55:00,
2013-01-12 09:00:00,35.2,30.0,29.88,SW,235,10.0,18.0,81,0.00,,,0.00,179,Wunderground v.1.15,2013-01-12 15:00:00,
2013-01-12 09:05:00,35.2,30.3,29.89,SW,217,11.0,21.0,82,0.00,,,0.00,174,Wunderground v.1.15,2013-01-12 15:05:00,
2013-01-12 09:10:00,35.2,30.0,29.89,SW,227,17.0,23.0,81,0.00,,,0.00,202,Wunderground v.1.15,2013-01-12 15:10:00,
2013-01-12 09:15:00,35.1,29.9,29.89,SW,221,14.0,23.0,81,0.00,,,0.00,237,Wunderground v.1.15,2013-01-12 15:15:00,
2013-01-12 09:20:00,34.8,29.3,29.90,South,180,13.0,24.0,80,0.00,,,0.00,243,Wunderground v.1.15,2013-01-12 15:20:00,
2013-01-12 09:25:00,34.7,29.5,29.90,SW,225,14.0,25.0,81,0.00,,,0.00,239,Wunderground v.1.15,2013-01-12 15:25:00,
2013-01-12 09:30:00,34.5,28.7,29.90,SW,227,23.0,23.0,79,0.00,,,0.00,206,Wunderground v.1.15,2013-01-12 15:30:00,
2013-01-12 09:35:00,34.3,28.8,29.91,SW,232,12.0,27.0,80,0.00,,,0.00,253,Wunderground v.1.15,2013-01-12 15:35:00,
2013-01-12 09:40:00,34.2,28.7,29.91,SW,225,11.0,16.0,80,0.00,,,0.00,162,Wunderground v.1.15,2013-01-12 15:40:00,
2013-01-12 09:45:00,34.0,28.5,29.91,SW,225,12.0,24.0,80,0.00,,,0.00,142,Wunderground v.1.15,2013-01-12 15:45:00,
2013-01-12 09:50:00,33.8,28.6,29.91,WSW,238,16.0,19.0,81,0.00,,,0.00,104,Wunderground v.1.15,2013-01-12 15:50:00,
2013-01-12 09:55:00,33.7,28.2,29.92,SW,215,12.0,29.0,80,0.00,,,0.00,135,Wunderground v.1.15,2013-01-12 15:55:00,
2013-01-12 10:00:00,33.9,28.7,29.92,SW,234,8.0,16.0,81,0.00,,,0.00,332,Wunderground v.1.15,2013-01-12 16:00:00,
2013-01-12 10:05:00,33.9,28.7,29.92,West,261,14.0,22.0,81,0.00,,,0.00,188,Wunderground v.1.15,2013-01-12 16:05:00,
2013-01-12 10:10:00,33.7,28.5,29.92,WSW,239,14.0,18.0,81,0.00,,,0.00,200,Wunderground v.1.15,2013-01-12 16:10:00,
2013-01-12 10:15:00,33.5,28.3,29.92,SW,233,8.0,26.0,81,0.00,,,0.00,281,Wunderground v.1.15,2013-01-12 16:15:00,
2013-01-12 10:20:00,33.5,28.6,29.91,SW,223,10.0,16.0,82,0.00,,,0.00,276,Wunderground v.1.15,2013-01-12 16:20:00,
2013-01-12 10:25:00,33.6,28.4,29.92,SW,219,12.0,23.0,81,0.00,,,0.00,311,Wunderground v.1.15,2013-01-12 16:25:00,
2013-01-12 10:30:00,33.7,28.8,29.92,SSW,210,13.0,21.0,82,0.00,,,0.00,253,Wunderground v.1.15,2013-01-12 16:30:00,
2013-01-12 10:35:00,33.6,28.7,29.93,SW,223,12.0,24.0,82,0.00,,,0.00,244,Wunderground v.1.15,2013-01-12 16:35:00,
2013-01-12 10:40:00,33.8,29.2,29.93,WSW,241,15.0,20.0,83,0.00,,,0.00,387,Wunderground v.1.15,2013-01-12 16:40:00,
2013-01-12 10:45:00,33.9,29.0,29.94,SW,223,12.0,25.0,82,0.00,,,0.00,276,Wunderground v.1.15,2013-01-12 16:45:00,
2013-01-12 10:51:00,33.7,27.9,29.95,WSW,241,10.0,16.0,79,0.00,,,0.00,227,Wunderground v.1.15,2013-01-12 16:51:00,
2013-01-12 10:56:00,33.5,27.7,29.95,SW,223,14.0,20.0,79,0.00,,,0.00,297,Wunderground v.1.15,2013-01-12 16:56:00,
2013-01-12 11:01:00,33.1,27.0,29.94,SW,225,16.0,26.0,78,0.00,,,0.00,229,Wunderground v.1.15,2013-01-12 17:01:00,
2013-01-12 11:06:00,32.7,26.9,29.94,WSW,258,14.0,26.0,79,0.00,,,0.00,192,Wunderground v.1.15,2013-01-12 17:06:00,
2013-01-12 11:11:00,32.4,26.3,29.94,SSW,213,21.0,21.0,78,0.00,,,0.00,195,Wunderground v.1.15,2013-01-12 17:11:00,
2013-01-12 11:16:00,32.3,26.5,29.94,SW,216,13.0,26.0,79,0.00,,,0.00,248,Wunderground v.1.15,2013-01-12 17:16:00,
2013-01-12 11:21:00,32.3,26.2,29.93,SSW,211,9.0,18.0,78,0.00,,,0.00,264,Wunderground v.1.15,2013-01-12 17:21:00,
2013-01-12 11:26:00,32.3,26.5,29.93,SSW,203,12.0,22.0,79,0.00,,,0.00,197,Wunderground v.1.15,2013-01-12 17:26:00,
2013-01-12 11:31:00,32.4,26.6,29.93,SSW,198,15.0,22.0,79,0.00,,,0.00,520,Wunderground v.1.15,2013-01-12 17:31:00,
2013-01-12 11:36:00,32.4,26.6,29.94,SW,225,16.0,23.0,79,0.00,,,0.00,490,Wunderground v.1.15,2013-01-12 17:36:00,
2013-01-12 11:41:00,32.4,26.6,29.94,SW,225,16.0,23.0,79,0.00,,,0.00,308,Wunderground v.1.15,2013-01-12 17:41:00,
2013-01-12 11:46:00,32.5,26.7,29.94,SW,235,13.0,26.0,79,0.00,,,0.00,580,Wunderground v.1.15,2013-01-12 17:46:00,
2013-01-12 11:51:00,32.7,27.2,29.95,SW,234,22.0,25.0,80,0.00,,,0.00,629,Wunderground v.1.15,2013-01-12 17:51:00,
2013-01-12 11:56:00,33.0,27.8,29.95,SW,235,14.0,25.0,81,0.00,,,0.00,758,Wunderground v.1.15,2013-01-12 17:56:00,
2013-01-12 12:01:00,33.3,28.1,29.95,WSW,250,21.0,21.0,81,0.00,,,0.00,835,Wunderground v.1.15,2013-01-12 18:01:00,
2013-01-12 12:06:00,33.4,27.9,29.94,WSW,237,13.0,21.0,80,0.00,,,0.00,299,Wunderground v.1.15,2013-01-12 18:06:00,
2013-01-12 12:11:00,33.1,27.6,29.95,WSW,242,17.0,22.0,80,0.00,,,0.00,462,Wunderground v.1.15,2013-01-12 18:11:00,
2013-01-12 12:16:00,33.3,27.5,29.95,SW,226,15.0,24.0,79,0.00,,,0.00,478,Wunderground v.1.15,2013-01-12 18:16:00,
2013-01-12 12:21:00,33.2,26.8,29.94,SW,215,13.0,21.0,77,0.00,,,0.00,383,Wunderground v.1.15,2013-01-12 18:21:00,
2013-01-12 12:26:00,33.0,26.9,29.94,SW,218,18.0,26.0,78,0.00,,,0.00,550,Wunderground v.1.15,2013-01-12 18:26:00,
2013-01-12 12:31:00,32.9,26.5,29.94,SW,220,21.0,26.0,77,0.00,,,0.00,432,Wunderground v.1.15,2013-01-12 18:31:00,
2013-01-12 12:36:00,32.8,26.7,29.94,SW,231,14.0,27.0,78,0.00,,,0.00,515,Wunderground v.1.15,2013-01-12 18:36:00,
2013-01-12 12:41:00,32.8,26.4,29.93,SW,233,10.0,17.0,77,0.00,,,0.00,461,Wunderground v.1.15,2013-01-12 18:41:00,
2013-01-12 12:46:00,33.0,26.3,29.94,SW,236,13.0,21.0,76,0.00,,,0.00,445,Wunderground v.1.15,2013-01-12 18:46:00,
2013-01-12 12:51:00,32.9,25.8,29.94,SW,222,21.0,23.0,75,0.00,,,0.00,441,Wunderground v.1.15,2013-01-12 18:51:00,
2013-01-12 12:56:00,32.6,24.9,29.95,SW,220,16.0,24.0,73,0.00,,,0.00,457,Wunderground v.1.15,2013-01-12 18:56:00,
2013-01-12 13:01:00,32.7,25.0,29.94,SSW,213,14.0,20.0,73,0.00,,,0.00,526,Wunderground v.1.15,2013-01-12 19:01:00,
2013-01-12 13:06:00,32.7,25.6,29.95,WSW,240,13.0,20.0,75,0.00,,,0.00,413,Wunderground v.1.15,2013-01-12 19:06:00,
2013-01-12 13:11:00,32.9,25.2,29.95,SW,234,11.0,17.0,73,0.00,,,0.00,448,Wunderground v.1.15,2013-01-12 19:11:00,
2013-01-12 13:16:00,32.9,25.2,29.95,WSW,247,11.0,19.0,73,0.00,,,0.00,209,Wunderground v.1.15,2013-01-12 19:16:00,
2013-01-12 13:21:00,33.0,25.6,29.96,West,259,8.0,15.0,74,0.00,,,0.00,281,Wunderground v.1.15,2013-01-12 19:21:00,
2013-01-12 13:26:00,32.8,24.8,29.96,WSW,244,18.0,20.0,72,0.00,,,0.00,223,Wunderground v.1.15,2013-01-12 19:26:00,
2013-01-12 13:31:00,32.5,24.5,29.97,SW,220,19.0,20.0,72,0.00,,,0.00,283,Wunderground v.1.15,2013-01-12 19:31:00,
2013-01-12 13:36:00,32.2,24.5,29.97,SW,234,15.0,25.0,73,0.00,,,0.00,287,Wunderground v.1.15,2013-01-12 19:36:00,
2013-01-12 13:41:00,32.0,24.3,29.98,SW,224,16.0,25.0,73,0.00,,,0.00,227,Wunderground v.1.15,2013-01-12 19:41:00,
2013-01-12 13:46:00,31.7,24.4,29.98,SSW,200,11.0,25.0,74,0.00,,,0.00,214,Wunderground v.1.15,2013-01-12 19:46:00,
2013-01-12 13:51:00,31.7,24.7,29.99,SSW,213,13.0,17.0,75,0.00,,,0.00,193,Wunderground v.1.15,2013-01-12 19:51:00,
2013-01-12 13:56:00,31.5,23.8,29.98,SW,235,8.0,23.0,73,0.00,,,0.00,200,Wunderground v.1.15,2013-01-12 19:56:00,
2013-01-12 14:01:00,31.4,23.4,29.98,SW,226,10.0,20.0,72,0.00,,,0.00,192,Wunderground v.1.15,2013-01-12 20:01:00,
2013-01-12 14:06:00,31.2,23.5,30.00,SSW,207,10.0,20.0,73,0.00,,,0.00,172,Wunderground v.1.15,2013-01-12 20:06:00,
2013-01-12 14:11:00,31.0,23.7,30.00,WSW,246,15.0,20.0,74,0.00,,,0.00,155,Wunderground v.1.15,2013-01-12 20:11:00,
2013-01-12 14:16:00,31.0,24.3,30.00,SW,221,13.0,20.0,76,0.00,,,0.00,151,Wunderground v.1.15,2013-01-12 20:16:00,
2013-01-12 14:21:00,31.0,24.3,30.00,SW,226,8.0,15.0,76,0.00,,,0.00,142,Wunderground v.1.15,2013-01-12 20:21:00,
2013-01-12 14:26:00,30.8,23.5,30.01,SW,231,8.0,19.0,74,0.00,,,0.00,144,Wunderground v.1.15,2013-01-12 20:26:00,
2013-01-12 14:31:00,30.7,23.4,30.01,SW,223,14.0,20.0,74,0.00,,,0.00,156,Wunderground v.1.15,2013-01-12 20:31:00,
2013-01-12 14:36:00,30.5,22.9,30.00,WSW,238,8.0,20.0,73,0.00,,,0.00,113,Wunderground v.1.15,2013-01-12 20:36:00,
2013-01-12 14:41:00,30.2,22.9,30.01,SW,218,10.0,14.0,74,0.00,,,0.00,93,Wunderground v.1.15,2013-01-12 20:41:00,
2013-01-12 14:46:00,29.9,22.3,30.01,SW,215,11.0,18.0,73,0.00,,,0.00,98,Wunderground v.1.15,2013-01-12 20:46:00,
2013-01-12 14:51:00,29.8,22.5,30.01,SSW,213,12.0,14.0,74,0.00,,,0.00,93,Wunderground v.1.15,2013-01-12 20:51:00,
2013-01-12 14:56:00,29.7,22.1,30.01,SSW,202,16.0,21.0,73,0.00,,,0.00,97,Wunderground v.1.15,2013-01-12 20:56:00,
2013-01-12 15:01:00,29.6,22.3,30.02,SW,223,10.0,14.0,74,0.00,,,0.00,97,Wunderground v.1.15,2013-01-12 21:01:00,
2013-01-12 15:06:00,29.6,22.0,30.02,SW,215,14.0,18.0,73,0.00,,,0.00,83,Wunderground v.1.15,2013-01-12 21:06:00,
2013-01-12 15:11:00,29.5,21.9,30.02,WSW,239,6.0,14.0,73,0.00,,,0.00,69,Wunderground v.1.15,2013-01-12 21:11:00,
2013-01-12 15:16:00,29.4,21.8,30.02,SW,225,7.0,21.0,73,0.00,,,0.00,63,Wunderground v.1.15,2013-01-12 21:16:00,
2013-01-12 15:21:00,29.3,21.4,30.01,SW,221,9.0,16.0,72,0.00,,,0.00,69,Wunderground v.1.15,2013-01-12 21:21:00,
2013-01-12 15:26:00,29.2,21.3,30.01,SW,229,8.0,16.0,72,0.00,,,0.00,67,Wunderground v.1.15,2013-01-12 21:26:00,
2013-01-12 15:31:00,29.1,21.2,30.01,SW,234,14.0,14.0,72,0.00,,,0.00,63,Wunderground v.1.15,2013-01-12 21:31:00,
2013-01-12 15:36:00,29.1,21.5,30.02,South,190,9.0,16.0,73,0.00,,,0.00,74,Wunderground v.1.15,2013-01-12 21:36:00,
2013-01-12 15:41:00,29.0,21.4,30.02,SW,219,7.0,14.0,73,0.00,,,0.00,72,Wunderground v.1.15,2013-01-12 21:41:00,
2013-01-12 15:46:00,29.0,21.4,30.03,SW,215,8.0,14.0,73,0.00,,,0.00,53,Wunderground v.1.15,2013-01-12 21:46:00,
2013-01-12 15:51:00,28.8,21.2,30.03,SW,228,11.0,14.0,73,0.00,,,0.00,46,Wunderground v.1.15,2013-01-12 21:51:00,
2013-01-12 15:56:00,28.7,20.8,30.03,SW,214,14.0,17.0,72,0.00,,,0.00,37,Wunderground v.1.15,2013-01-12 21:56:00,
2013-01-12 16:01:00,28.5,20.3,30.04,SW,216,14.0,16.0,71,0.00,,,0.00,25,Wunderground v.1.15,2013-01-12 22:01:00,
2013-01-12 16:06:00,28.4,20.5,30.03,SSW,213,7.0,16.0,72,0.00,,,0.00,19,Wunderground v.1.15,2013-01-12 22:06:00,
2013-01-12 16:11:00,28.4,20.2,30.04,WSW,242,12.0,18.0,71,0.00,,,0.00,28,Wunderground v.1.15,2013-01-12 22:11:00,
2013-01-12 16:16:00,28.3,20.1,30.05,SW,223,10.0,18.0,71,0.00,,,0.00,30,Wunderground v.1.15,2013-01-12 22:16:00,
2013-01-12 16:22:00,28.3,20.7,30.05,SSW,210,14.0,16.0,73,0.00,,,0.00,12,Wunderground v.1.15,2013-01-12 22:22:00,
2013-01-12 16:27:00,28.3,20.4,30.05,SW,233,7.0,17.0,72,0.00,,,0.00,9,Wunderground v.1.15,2013-01-12 22:27:00,
2013-01-12 16:32:00,28.3,20.7,30.06,SW,228,11.0,13.0,73,0.00,,,0.00,5,Wunderground v.1.15,2013-01-12 22:32:00,
2013-01-12 16:37:00,28.2,20.3,30.06,SW,216,10.0,16.0,72,0.00,,,0.00,0,Wunderground v.1.15,2013-01-12 22:37:00,
2013-01-12 16:42:00,28.2,20.3,30.07,SW,215,10.0,18.0,72,0.00,,,0.00,0,Wunderground v.1.15,2013-01-12 22:42:00,
2013-01-12 16:47:00,28.1,20.2,30.07,SW,225,13.0,20.0,72,0.00,,,0.00,0,Wunderground v.1.15,2013-01-12 22:47:00,
2013-01-12 16:52:00,28.1,20.6,30.07,SW,234,11.0,19.0,73,0.00,,,0.00,0,Wunderground v.1.15,2013-01-12 22:52:00,
2013-01-12 16:57:00,28.1,20.2,30.07,SW,224,7.0,19.0,72,0.00,,,0.00,0,Wunderground v.1.15,2013-01-12 22:57:00,
2013-01-12 17:02:00,28.0,20.5,30.07,SW,234,12.0,18.0,73,0.00,,,0.00,0,Wunderground v.1.15,2013-01-12 23:02:00,
2013-01-12 17:07:00,28.0,20.8,30.07,SW,229,7.0,18.0,74,0.00,,,0.00,0,Wunderground v.1.15,2013-01-12 23:07:00,
2013-01-12 17:12:00,27.9,20.7,30.07,SW,221,7.0,10.0,74,0.00,,,0.00,0,Wunderground v.1.15,2013-01-12 23:12:00,
2013-01-12 17:17:00,27.9,20.7,30.06,SW,223,9.0,15.0,74,0.00,,,0.00,0,Wunderground v.1.15,2013-01-12 23:17:00,
2013-01-12 17:22:00,27.8,20.6,30.06,SW,226,8.0,18.0,74,0.00,,,0.00,0,Wunderground v.1.15,2013-01-12 23:22:00,
2013-01-12 17:27:00,27.8,20.6,30.06,SW,234,6.0,18.0,74,0.00,,,0.00,0,Wunderground v.1.15,2013-01-12 23:27:00,
2013-01-12 17:32:00,27.8,20.6,30.06,SW,232,8.0,16.0,74,0.00,,,0.00,0,Wunderground v.1.15,2013-01-12 23:32:00,
2013-01-12 17:37:00,27.8,20.6,30.07,WSW,240,12.0,17.0,74,0.00,,,0.00,0,Wunderground v.1.15,2013-01-12 23:37:00,
2013-01-12 17:42:00,27.7,20.5,30.06,SW,234,10.0,12.0,74,0.00,,,0.00,0,Wunderground v.1.15,2013-01-12 23:42:00,
2013-01-12 17:47:00,27.7,20.5,30.06,SW,228,8.0,14.0,74,0.00,,,0.00,0,Wunderground v.1.15,2013-01-12 23:47:00,
2013-01-12 17:52:00,27.6,20.4,30.06,SW,229,12.0,17.0,74,0.00,,,0.00,0,Wunderground v.1.15,2013-01-12 23:52:00,
2013-01-12 17:57:00,27.6,20.1,30.05,SW,233,7.0,17.0,73,0.00,,,0.00,0,Wunderground v.1.15,2013-01-12 23:57:00,
2013-01-12 18:02:00,27.5,20.3,30.05,SW,236,8.0,10.0,74,0.00,,,0.00,0,Wunderground v.1.15,2013-01-13 00:02:00,
2013-01-12 18:07:00,27.4,20.2,30.04,WSW,242,5.0,13.0,74,0.00,,,0.00,0,Wunderground v.1.15,2013-01-13 00:07:00,
2013-01-12 18:12:00,27.3,20.1,30.04,West,267,7.0,14.0,74,0.00,,,0.00,0,Wunderground v.1.15,2013-01-13 00:12:00,
2013-01-12 18:17:00,27.2,20.3,30.04,WNW,299,5.0,14.0,75,0.00,,,0.00,0,Wunderground v.1.15,2013-01-13 00:17:00,
2013-01-12 18:22:00,27.1,20.8,30.05,West,278,2.0,7.0,77,0.00,,,0.00,0,Wunderground v.1.15,2013-01-13 00:22:00,
2013-01-12 18:27:00,27.0,20.7,30.04,West,265,6.0,11.0,77,0.00,,,0.00,0,Wunderground v.1.15,2013-01-13 00:27:00,
2013-01-12 18:32:00,26.8,19.9,30.04,West,265,3.0,11.0,75,0.00,,,0.00,0,Wunderground v.1.15,2013-01-13 00:32:00,
2013-01-12 18:37:00,26.6,20.1,30.04,SW,234,11.0,11.0,76,0.00,,,0.00,0,Wunderground v.1.15,2013-01-13 00:37:00,
2013-01-12 18:42:00,26.5,19.6,30.04,WNW,289,2.0,7.0,75,0.00,,,0.00,0,Wunderground v.1.15,2013-01-13 00:42:00,
2013-01-12 18:47:00,26.3,19.5,30.03,West,278,4.0,13.0,75,0.00,,,0.00,0,Wunderground v.1.15,2013-01-13 00:47:00,
2013-01-12 18:52:00,26.2,19.7,30.04,WNW,284,7.0,7.0,76,0.00,,,0.00,0,Wunderground v.1.15,2013-01-13 00:52:00,
2013-01-12 18:57:00,26.0,19.2,30.04,West,263,3.0,16.0,75,0.00,,,0.00,0,Wunderground v.1.15,2013-01-13 00:57:00,
2013-01-12 19:02:00,25.8,18.7,30.04,WNW,285,4.0,14.0,74,0.00,,,0.00,0,Wunderground v.1.15,2013-01-13 01:02:00,
2013-01-12 19:07:00,25.7,18.9,30.05,WSW,253,8.0,14.0,75,0.00,,,0.00,0,Wunderground v.1.15,2013-01-13 01:07:00,
2013-01-12 19:12:00,25.5,18.4,30.05,West,259,6.0,14.0,74,0.00,,,0.00,0,Wunderground v.1.15,2013-01-13 01:12:00,
2013-01-12 19:17:00,25.4,18.3,30.07,WSW,250,2.0,17.0,74,0.00,,,0.00,0,Wunderground v.1.15,2013-01-13 01:17:00,
2013-01-12 19:22:00,25.3,18.2,30.06,SW,234,11.0,11.0,74,0.00,,,0.00,0,Wunderground v.1.15,2013-01-13 01:22:00,
2013-01-12 19:29:00,25.1,17.7,30.06,WSW,241,13.0,13.0,73,0.00,,,0.00,0,Wunderground v.1.15,2013-01-13 01:29:00,
2013-01-12 19:38:00,25.0,17.9,30.07,West,272,11.0,11.0,74,0.00,,,0.00,0,Wunderground v.1.15,2013-01-13 01:38:00,
2013-01-12 19:46:00,25.1,18.3,30.07,WNW,296,6.0,9.0,75,0.00,,,0.00,0,Wunderground v.1.15,2013-01-13 01:46:00,
2013-01-12 19:51:00,25.1,18.3,30.07,WSW,243,7.0,12.0,75,0.00,,,0.00,0,Wunderground v.1.15,2013-01-13 01:51:00,
2013-01-12 19:56:00,24.9,17.8,30.07,SW,236,3.0,12.0,74,0.00,,,0.00,0,Wunderground v.1.15,2013-01-13 01:56:00,
2013-01-12 20:01:00,24.9,18.4,30.08,WSW,242,7.0,11.0,76,0.00,,,0.00,0,Wunderground v.1.15,2013-01-13 02:01:00,
2013-01-12 20:06:00,24.8,18.0,30.09,WSW,257,11.0,13.0,75,0.00,,,0.00,0,Wunderground v.1.15,2013-01-13 02:06:00,
2013-01-12 20:11:00,24.7,17.6,30.09,WSW,246,10.0,15.0,74,0.00,,,0.00,0,Wunderground v.1.15,2013-01-13 02:11:00,
2013-01-12 20:16:00,24.5,17.4,30.08,WSW,240,6.0,15.0,74,0.00,,,0.00,0,Wunderground v.1.15,2013-01-13 02:16:00,
2013-01-12 20:21:00,24.5,17.4,30.09,SW,232,6.0,10.0,74,0.00,,,0.00,0,Wunderground v.1.15,2013-01-13 02:21:00,
2013-01-12 20:26:00,24.4,17.6,30.09,WSW,252,3.0,12.0,75,0.00,,,0.00,0,Wunderground v.1.15,2013-01-13 02:26:00,
2013-01-12 20:31:00,24.3,17.5,30.09,WSW,238,10.0,10.0,75,0.00,,,0.00,0,Wunderground v.1.15,2013-01-13 02:31:00,
2013-01-12 20:36:00,24.3,17.8,30.09,West,269,2.0,10.0,76,0.00,,,0.00,0,Wunderground v.1.15,2013-01-13 02:36:00,
2013-01-12 20:41:00,24.2,17.4,30.10,WSW,252,5.0,10.0,75,0.00,,,0.00,0,Wunderground v.1.15,2013-01-13 02:41:00,
2013-01-12 20:46:00,24.0,17.2,30.10,WSW,242,10.0,11.0,75,0.00,,,0.00,0,Wunderground v.1.15,2013-01-13 02:46:00,
2013-01-12 20:51:00,24.0,17.2,30.10,WSW,240,5.0,10.0,75,0.00,,,0.00,0,Wunderground v.1.15,2013-01-13 02:51:00,
2013-01-12 20:56:00,23.9,16.8,30.10,SW,233,5.0,11.0,74,0.00,,,0.00,0,Wunderground v.1.15,2013-01-13 02:56:00,
2013-01-12 21:01:00,23.9,17.4,30.11,WSW,246,4.0,7.0,76,0.00,,,0.00,0,Wunderground v.1.15,2013-01-13 03:01:00,
2013-01-12 21:06:00,23.9,17.1,30.11,WSW,256,0.0,7.0,75,0.00,,,0.00,0,Wunderground v.1.15,2013-01-13 03:06:00,
2013-01-12 21:11:00,23.8,17.3,30.11,West,259,0.0,4.0,76,0.00,,,0.00,0,Wunderground v.1.15,2013-01-13 03:11:00,
2013-01-12 21:16:00,23.7,17.2,30.11,WNW,283,2.0,11.0,76,0.00,,,0.00,0,Wunderground v.1.15,2013-01-13 03:16:00,
2013-01-12 21:21:00,23.6,17.1,30.13,WSW,252,3.0,12.0,76,0.00,,,0.00,0,Wunderground v.1.15,2013-01-13 03:21:00,
2013-01-12 21:26:00,23.5,17.0,30.12,SW,229,7.0,15.0,76,0.00,,,0.00,0,Wunderground v.1.15,2013-01-13 03:26:00,
2013-01-12 21:31:00,23.4,16.6,30.12,West,265,3.0,6.0,75,0.00,,,0.00,0,Wunderground v.1.15,2013-01-13 03:31:00,
2013-01-12 21:36:00,23.3,16.9,30.11,WNW,302,0.0,7.0,76,0.00,,,0.00,0,Wunderground v.1.15,2013-01-13 03:36:00,
2013-01-12 21:41:00,23.3,16.9,30.11,WSW,240,0.0,4.0,76,0.00,,,0.00,0,Wunderground v.1.15,2013-01-13 03:41:00,
2013-01-12 21:46:00,23.2,16.4,30.10,NW,304,4.0,8.0,75,0.00,,,0.00,0,Wunderground v.1.15,2013-01-13 03:46:00,
2013-01-12 21:51:00,23.1,16.7,30.11,NW,306,1.0,3.0,76,0.00,,,0.00,0,Wunderground v.1.15,2013-01-13 03:51:00,
2013-01-12 21:56:00,23.0,16.6,30.10,WNW,290,2.0,9.0,76,0.00,,,0.00,0,Wunderground v.1.15,2013-01-13 03:56:00,
2013-01-12 22:01:00,22.9,16.5,30.10,West,277,5.0,12.0,76,0.00,,,0.00,0,Wunderground v.1.15,2013-01-13 04:01:00,
2013-01-12 22:06:00,22.7,16.0,30.10,WNW,297,5.0,13.0,75,0.00,,,0.00,0,Wunderground v.1.15,2013-01-13 04:06:00,
2013-01-12 22:11:00,22.7,16.3,30.11,West,278,7.0,8.0,76,0.00,,,0.00,0,Wunderground v.1.15,2013-01-13 04:11:00,
2013-01-12 22:16:00,22.6,15.9,30.11,WNW,297,9.0,12.0,75,0.00,,,0.00,0,Wunderground v.1.15,2013-01-13 04:16:00,
2013-01-12 22:21:00,22.5,15.8,30.11,WNW,292,0.0,6.0,75,0.00,,,0.00,0,Wunderground v.1.15,2013-01-13 04:21:00,
2013-01-12 22:30:00,22.4,15.7,30.11,WNW,289,5.0,6.0,75,0.00,,,0.00,0,Wunderground v.1.15,2013-01-13 04:30:00,
2013-01-12 22:41:00,22.3,15.6,30.10,WNW,292,9.0,12.0,75,0.00,,,0.00,0,Wunderground v.1.15,2013-01-13 04:41:00,
2013-01-12 22:47:00,22.3,15.6,30.10,NW,311,7.0,12.0,75,0.00,,,0.00,0,Wunderground v.1.15,2013-01-13 04:47:00,
2013-01-12 22:54:00,22.2,15.5,30.08,NW,314,2.0,9.0,75,0.00,,,0.00,0,Wunderground v.1.15,2013-01-13 04:54:00,
2013-01-12 23:16:00,21.6,15.2,30.08,WNW,298,5.0,11.0,76,0.00,,,0.00,0,Wunderground v.1.15,2013-01-13 05:16:00,
2013-01-12 23:24:00,21.5,15.4,30.07,NW,324,5.0,12.0,77,0.00,,,0.00,0,Wunderground v.1.15,2013-01-13 05:24:00,
2013-01-12 23:29:00,21.4,15.3,30.07,WNW,290,6.0,12.0,77,0.00,,,0.00,0,Wunderground v.1.15,2013-01-13 05:29:00,
2013-01-12 23:34:00,21.4,15.3,30.05,NW,311,4.0,14.0,77,0.00,,,0.00,0,Wunderground v.1.15,2013-01-13 05:34:00,
2013-01-12 23:39:00,21.2,14.8,30.04,NNW,331,8.0,14.0,76,0.00,,,0.00,0,Wunderground v.1.15,2013-01-13 05:39:00,
2013-01-12 23:49:00,21.0,14.6,30.04,WNW,300,4.0,12.0,76,0.00,,,0.00,0,Wunderground v.1.15,2013-01-13 05:49:00,
2013-01-12 23:57:00,20.9,14.5,30.07,NW,325,7.0,13.0,76,0.00,,,0.00,0,Wunderground v.1.15,2013-01-13 05:57:00,